Aérodrome :
LOGIN :

S'inscrire | Disclaimer

   EN    FR    IT 

 










Légende :    VFR   VFR Marginal   IFR   IFR Intensif   IFR Très Intensif
Visi : 
Plafond : 
>= 8 km
>= 3000ft
5 à 8 km
1000 à 3000 ft
1500m à 5 km
500 à 1000 ft
800 à 1500m
200 à 500 ft
< 800m
< 200 ft
Symboles :   Orages  Brouillard  Fortes neiges  Fortes précipitations  Vent > 20 kt
SIGMETs :   Divers  Orages  Givrage  Turbulence  Onde Orograph.  Cendres Volcan.






- Altitude de l'aérodrome : 699 ft
- Code IATA : PAD


EDLP - Paderborn Lippstadt

DERNIER METAR :
  • 091820Z 20005KT 9999 OVC017 M00/M03 Q1006

METARs EXPIRÉS :
  • 091750Z 15003KT 9999 SCT014 OVC016 M00/M03 Q1006
  • 091720Z 15004KT 9999 OVC016 M00/M03 Q1005
  • 091650Z 11004KT 090V160 9999 OVC015 00/M02 Q1005
  • 091620Z 12005KT 7000 BR OVC017 00/M02 Q1005
  • 091550Z 10003KT 5000 BR OVC016 00/M01 Q1005

TAF TAF EDLP
Valide du 09 à 18h jusqu'au 10 à 18h UTC


091700Z 0918/1018 VRB03KT 9999 BKN015
PROB30
TEMPO 0918/0922 4500 BR BKN014
BECMG 0922/1001 4000 BR BKN009
TEMPO 1003/1012 BKN004
PROB40
TEMPO 1003/1008 1500 BCFG
PROB40
TEMPO 1012/1018 6000 BKN012



MET'MAP, la Météo Aéronautique d'un coup d'oeil ! - Copyright ORBIFLY Décembre 2007 - Disclaimer

ORBIFLY MET'MAP TEAM :

Programmation & Développement : Alexandra Zaïnal
Sur une idée originale de : Baudouin d'Aumeries
Soutien technique & logistique : Manuel Goepfert
Assistance : Marc-Olivier Méhu




SOURCES & CREDITS :

   NOAA